Time;durP1;ratioP1;P1;durP2;ratioP2;P2;SDS_P1;SDS_P2;PMS_P1;PMS_P2;Temp;Humidity;BMP_temperature;BMP_pressure;BME280_temperature;BME280_humidity;BME280_pressure;Samples;Min_cycle;Max_cycle;Signal;HPM_P1;HPM_P2
2022/03/05 08:56:18;;;;;;;44.60;26.70;;;10.40;99.90;;;;;;6010133;22;3110113;-96
2022/03/05 08:58:51;;;;;;;52.00;28.97;;;10.70;99.90;;;;;;6256263;22;20177;-96
2022/03/05 09:01:22;;;;;;;45.03;27.70;;;10.90;99.90;;;;;;6259130;22;20198;-96
2022/03/05 09:03:58;;;;;;;46.50;26.43;;;10.90;99.90;;;;;;6261329;22;20157;-96
2022/03/05 09:06:37;;;;;;;40.47;26.47;;;11.50;99.90;;;;;;6261795;22;20185;-96
2022/03/05 09:09:12;;;;;;;43.70;27.73;;;11.80;99.90;;;;;;6176867;22;20201;-96
2022/03/05 09:11:51;;;;;;;45.20;27.57;;;12.20;99.90;;;;;;6148727;23;20189;-96
2022/03/05 09:17:15;;;;;;;41.97;27.50;;;12.90;99.90;;;;;;6148029;22;20166;-95
2022/03/05 09:19:53;;;;;;;40.80;27.70;;;13.10;99.90;;;;;;6140353;23;20201;-96
2022/03/05 09:22:29;;;;;;;45.70;28.77;;;13.60;99.90;;;;;;6148210;22;20214;-96
2022/03/05 09:25:00;;;;;;;46.13;28.80;;;13.40;99.90;;;;;;6145982;23;20173;-95
2022/03/05 09:27:33;;;;;;;47.57;29.40;;;13.70;99.90;;;;;;6143127;23;20189;-96
2022/03/05 09:30:03;;;;;;;44.43;28.00;;;13.80;99.90;;;;;;6140121;23;20228;-96
2022/03/05 09:32:38;;;;;;;41.03;27.50;;;13.70;99.90;;;;;;6144816;23;20230;-96
2022/03/05 09:35:46;;;;;;;43.87;28.40;;;13.50;99.90;;;;;;6127958;22;20209;-96
2022/03/05 09:57:40;;;;;;;41.20;27.40;;;14.70;99.90;;;;;;6163737;22;20212;-96
2022/03/05 10:00:17;;;;;;;41.20;27.67;;;15.00;99.90;;;;;;6171489;22;20206;-95
2022/03/05 10:03:01;;;;;;;41.80;28.33;;;15.00;99.90;;;;;;6105243;23;20250;-96
2022/03/05 10:05:32;;;;;;;49.57;28.07;;;14.70;99.90;;;;;;6096113;23;20195;-94
2022/03/05 10:08:15;;;;;;;41.90;27.67;;;14.80;99.90;;;;;;6101735;23;20203;-94
2022/03/05 10:10:49;;;;;;;43.77;28.03;;;15.00;99.90;;;;;;6122355;23;20257;-96
2022/03/05 10:13:26;;;;;;;46.73;27.80;;;14.90;99.90;;;;;;6097953;23;20221;-95
2022/03/05 10:15:57;;;;;;;41.03;27.63;;;14.40;99.90;;;;;;6101055;23;20637;-96
2022/03/05 10:18:31;;;;;;;40.80;26.50;;;14.40;99.90;;;;;;6106413;23;20213;-94
2022/03/05 10:21:02;;;;;;;42.23;27.90;;;14.60;99.90;;;;;;6106880;23;20643;-95
2022/03/05 10:23:39;;;;;;;41.53;27.13;;;14.90;99.90;;;;;;6102646;23;20188;-95
2022/03/05 10:26:52;;;;;;;46.00;27.33;;;15.50;99.90;;;;;;6102692;23;20190;-95
2022/03/05 10:30:15;;;;;;;39.23;25.53;;;15.70;99.90;;;;;;6069379;23;20231;-95
2022/03/05 10:32:51;;;;;;;37.53;26.00;;;15.90;99.90;;;;;;6096486;23;20165;-95
2022/03/05 10:35:23;;;;;;;40.57;26.77;;;15.90;99.90;;;;;;6094944;23;20554;-96
2022/03/05 10:38:17;;;;;;;46.27;27.43;;;16.10;99.60;;;;;;6097964;23;20246;-96
2022/03/05 10:40:54;;;;;;;39.63;26.17;;;16.00;99.90;;;;;;6101227;22;20214;-94
2022/03/05 10:47:17;;;;;;;40.27;26.53;;;16.70;99.00;;;;;;6096747;23;20191;-95
2022/03/05 10:50:25;;;;;;;38.33;24.23;;;16.80;99.90;;;;;;6096439;22;20265;-96
2022/03/05 10:53:00;;;;;;;36.83;24.70;;;16.80;95.20;;;;;;6095314;23;20174;-93
2022/03/05 10:55:37;;;;;;;39.80;25.90;;;16.20;97.10;;;;;;6092947;23;20265;-94
2022/03/05 11:01:58;;;;;;;37.13;24.40;;;16.70;97.50;;;;;;5961169;23;20391;-94
2022/03/05 11:06:05;;;;;;;34.13;23.83;;;17.30;97.50;;;;;;6116874;23;20613;-95
2022/03/05 11:09:24;;;;;;;37.93;23.87;;;17.70;96.70;;;;;;6092540;23;20193;-95
2022/03/05 11:12:02;;;;;;;35.47;24.43;;;17.50;94.40;;;;;;6092302;23;20664;-95
2022/03/05 11:14:59;;;;;;;40.47;26.33;;;16.80;95.10;;;;;;6093136;23;20176;-94
2022/03/05 11:17:36;;;;;;;38.53;24.87;;;16.30;95.20;;;;;;6091787;23;20182;-94
2022/03/05 11:20:05;;;;;;;38.33;24.13;;;16.30;96.00;;;;;;6092725;22;20204;-94
2022/03/05 11:22:35;;;;;;;39.30;24.37;;;16.40;96.40;;;;;;6220833;23;20183;-94
2022/03/05 11:25:06;;;;;;;35.97;24.50;;;17.00;95.70;;;;;;6092786;22;20717;-93
2022/03/05 11:27:37;;;;;;;37.33;24.20;;;16.90;96.30;;;;;;6117753;23;20197;-93
2022/03/05 11:30:07;;;;;;;37.63;24.00;;;17.30;94.90;;;;;;6092701;23;20255;-95
2022/03/05 11:32:38;;;;;;;38.17;24.93;;;17.20;93.60;;;;;;6093986;23;20186;-94
2022/03/05 11:35:20;;;;;;;38.17;22.43;;;16.40;95.80;;;;;;6099422;23;20175;-93
2022/03/05 11:37:50;;;;;;;34.97;24.03;;;16.90;96.70;;;;;;6223380;23;20602;-93
2022/03/05 11:40:36;;;;;;;39.10;24.77;;;17.30;97.00;;;;;;6100571;23;20198;-94
2022/03/05 11:43:21;;;;;;;36.73;23.37;;;17.40;93.50;;;;;;6100940;23;20681;-95
2022/03/05 11:45:56;;;;;;;36.23;24.57;;;17.30;95.20;;;;;;6095436;23;20555;-95
2022/03/05 11:48:33;;;;;;;36.43;23.93;;;17.30;93.00;;;;;;6224206;23;20199;-94
2022/03/05 11:51:10;;;;;;;36.10;24.20;;;16.80;94.20;;;;;;6094955;23;20371;-94
2022/03/05 11:53:42;;;;;;;38.93;24.37;;;17.00;94.70;;;;;;6095409;23;20194;-93
2022/03/05 11:56:24;;;;;;;38.60;24.30;;;16.90;94.00;;;;;;6095146;23;20193;-94
2022/03/05 11:58:54;;;;;;;37.67;22.70;;;16.90;95.40;;;;;;6093141;23;20190;-94
2022/03/05 12:01:34;;;;;;;32.37;20.63;;;16.80;94.20;;;;;;6096296;23;20202;-94
2022/03/05 12:04:29;;;;;;;33.10;21.80;;;16.60;92.00;;;;;;6098883;23;20158;-95
2022/03/05 12:07:01;;;;;;;39.43;22.80;;;16.20;92.80;;;;;;6097229;23;20174;-94
2022/03/05 12:09:45;;;;;;;33.83;20.50;;;16.00;92.90;;;;;;6097741;23;20170;-93
2022/03/05 12:12:19;;;;;;;35.43;20.77;;;15.70;91.20;;;;;;6096647;23;20713;-93
2022/03/05 12:15:12;;;;;;;34.73;21.83;;;16.20;94.30;;;;;;6120099;23;20409;-94
2022/03/05 12:17:51;;;;;;;33.70;20.97;;;16.50;91.00;;;;;;6097400;23;20590;-94
2022/03/05 12:20:23;;;;;;;35.20;20.60;;;16.20;91.40;;;;;;6097448;23;20169;-95
2022/03/05 12:22:58;;;;;;;34.87;21.00;;;16.30;94.00;;;;;;6098084;23;20170;-95
2022/03/05 12:25:29;;;;;;;36.00;20.37;;;16.40;91.60;;;;;;6097250;23;20626;-94
2022/03/05 12:27:59;;;;;;;32.13;20.20;;;16.30;90.90;;;;;;6096413;23;20660;-94
2022/03/05 12:30:35;;;;;;;31.67;19.90;;;16.40;92.40;;;;;;6097538;23;20590;-93
2022/03/05 12:33:06;;;;;;;33.63;19.37;;;16.50;90.80;;;;;;6226356;22;20192;-94
2022/03/05 12:35:36;;;;;;;33.13;19.77;;;16.50;92.90;;;;;;6122858;23;20174;-95
2022/03/05 12:38:06;;;;;;;32.87;19.30;;;16.50;90.60;;;;;;6225350;23;20193;-94
2022/03/05 12:40:36;;;;;;;32.00;20.80;;;16.10;90.30;;;;;;6097153;23;20209;-94
2022/03/05 12:43:08;;;;;;;32.33;20.10;;;15.80;92.00;;;;;;6223361;23;20174;-94
2022/03/05 12:45:41;;;;;;;35.83;20.70;;;15.90;93.20;;;;;;6096096;23;20181;-94
2022/03/05 12:48:11;;;;;;;33.47;19.73;;;16.00;91.20;;;;;;6224994;22;20644;-93
2022/03/05 12:50:41;;;;;;;31.50;18.70;;;15.80;91.00;;;;;;6100625;23;20194;-94
2022/03/05 12:53:12;;;;;;;34.10;18.97;;;15.40;91.90;;;;;;6099773;23;20170;-94
2022/03/05 12:55:42;;;;;;;30.83;19.63;;;15.60;91.70;;;;;;6097845;23;20238;-93
2022/03/05 12:58:13;;;;;;;28.13;18.53;;;15.40;93.30;;;;;;6224035;23;20167;-94
2022/03/05 13:00:46;;;;;;;29.07;18.83;;;15.70;93.80;;;;;;6097293;23;20208;-94
2022/03/05 13:03:17;;;;;;;31.27;18.77;;;15.90;91.60;;;;;;6098004;23;20657;-94
2022/03/05 13:05:48;;;;;;;33.00;19.73;;;15.70;91.30;;;;;;6098438;23;20202;-95
2022/03/05 13:08:22;;;;;;;28.47;18.67;;;15.80;92.00;;;;;;6097975;23;20640;-94
2022/03/05 13:11:01;;;;;;;29.37;17.63;;;16.00;91.10;;;;;;6224437;23;20166;-94
2022/03/05 13:13:34;;;;;;;26.00;16.93;;;16.10;91.40;;;;;;6097594;23;20171;-93
2022/03/05 13:16:07;;;;;;;27.27;16.40;;;16.00;90.10;;;;;;6097888;23;20230;-94
2022/03/05 13:18:36;;;;;;;29.03;17.10;;;15.70;88.10;;;;;;6097761;23;20544;-95
2022/03/05 13:21:07;;;;;;;28.10;17.20;;;14.90;88.90;;;;;;6225841;22;20522;-94
2022/03/05 13:23:37;;;;;;;32.17;16.57;;;14.60;92.20;;;;;;6097852;23;20171;-94
2022/03/05 13:26:07;;;;;;;26.80;16.50;;;14.90;92.00;;;;;;6098085;23;20158;-92
2022/03/05 13:28:36;;;;;;;24.07;14.60;;;15.10;91.70;;;;;;6123450;23;20259;-95
2022/03/05 13:31:07;;;;;;;22.63;13.77;;;15.20;88.30;;;;;;6098468;23;20176;-93
2022/03/05 13:33:47;;;;;;;26.10;15.50;;;14.80;90.70;;;;;;6098893;23;20675;-92
2022/03/05 13:36:22;;;;;;;28.10;15.63;;;15.00;91.30;;;;;;6226702;23;20166;-94
2022/03/05 13:38:53;;;;;;;30.43;16.47;;;15.20;91.20;;;;;;6097694;23;20172;-93
2022/03/05 13:41:26;;;;;;;37.07;18.70;;;14.40;87.70;;;;;;6225182;22;20265;-93
2022/03/05 13:43:56;;;;;;;29.10;17.13;;;14.20;92.50;;;;;;6123556;23;20186;-93
2022/03/05 13:46:29;;;;;;;31.00;17.13;;;14.40;90.20;;;;;;6097442;23;20174;-92
2022/03/05 13:49:00;;;;;;;29.60;16.70;;;14.10;90.20;;;;;;6225973;23;20255;-93
2022/03/05 13:51:31;;;;;;;26.47;16.27;;;14.10;92.20;;;;;;6094674;23;20177;-93
2022/03/05 13:54:03;;;;;;;30.30;17.43;;;14.00;90.10;;;;;;6097560;23;20173;-93
2022/03/05 13:56:42;;;;;;;29.20;16.70;;;14.20;92.50;;;;;;6098077;23;20628;-92
2022/03/05 13:59:13;;;;;;;30.83;16.47;;;14.40;92.00;;;;;;6098783;23;20167;-93
2022/03/05 14:01:45;;;;;;;27.97;15.53;;;14.60;92.50;;;;;;6100560;23;20220;-95
2022/03/05 14:04:16;;;;;;;26.70;15.33;;;14.50;91.30;;;;;;6097814;23;20171;-91
2022/03/05 14:06:54;;;;;;;28.27;16.20;;;14.30;88.10;;;;;;6098344;23;20170;-93
2022/03/05 14:09:37;;;;;;;31.77;16.20;;;13.80;89.10;;;;;;6122652;23;20283;-93
2022/03/05 14:12:08;;;;;;;25.57;15.43;;;13.90;90.10;;;;;;6096059;23;20180;-92
2022/03/05 14:14:43;;;;;;;30.43;16.17;;;14.10;91.40;;;;;;6096686;23;20253;-93
2022/03/05 14:17:27;;;;;;;28.13;16.47;;;14.20;91.70;;;;;;6094312;23;20174;-92
2022/03/05 14:20:08;;;;;;;27.63;16.40;;;14.30;92.60;;;;;;6095757;23;20561;-93
2022/03/05 14:22:39;;;;;;;26.80;16.13;;;14.40;92.20;;;;;;6098449;23;20170;-95
2022/03/05 14:25:16;;;;;;;30.30;16.53;;;14.60;92.40;;;;;;6098359;23;20172;-95
2022/03/05 14:27:45;;;;;;;30.70;17.40;;;14.80;94.00;;;;;;6096697;23;20174;-94
2022/03/05 14:30:15;;;;;;;20.53;12.80;;;15.10;92.90;;;;;;6096534;23;20186;-94
2022/03/05 14:32:47;;;;;;;14.70;10.40;;;15.00;89.10;;;;;;6093356;23;20327;-93
2022/03/05 14:35:17;;;;;;;16.53;10.17;;;15.20;90.30;;;;;;6117203;23;20178;-93
2022/03/05 14:37:48;;;;;;;14.43;9.90;;;15.30;89.80;;;;;;6117811;23;20699;-94
2022/03/05 14:40:19;;;;;;;16.37;10.27;;;15.30;87.80;;;;;;6120839;23;20182;-93
2022/03/05 14:42:49;;;;;;;13.47;9.07;;;15.20;90.00;;;;;;6098251;23;20163;-92
2022/03/05 14:45:34;;;;;;;15.07;10.23;;;15.30;87.40;;;;;;6104147;23;20169;-92
2022/03/05 14:48:08;;;;;;;15.47;10.30;;;14.60;83.90;;;;;;6105076;23;20181;-92
2022/03/05 14:50:37;;;;;;;15.07;10.30;;;14.60;85.60;;;;;;6107395;23;20200;-93
2022/03/05 14:53:09;;;;;;;15.27;10.60;;;14.90;88.40;;;;;;6100943;23;20167;-92
2022/03/05 14:55:43;;;;;;;17.23;11.00;;;15.00;87.60;;;;;;6107032;23;20175;-94
2022/03/05 14:58:12;;;;;;;18.37;11.20;;;15.10;87.20;;;;;;6115898;23;20158;-95
2022/03/05 15:00:43;;;;;;;17.53;11.27;;;14.80;85.90;;;;;;6113033;23;20198;-94
2022/03/05 15:03:51;;;;;;;14.80;9.87;;;14.60;83.30;;;;;;6111569;23;20196;-95
2022/03/05 15:06:24;;;;;;;16.43;9.77;;;14.30;85.30;;;;;;6107378;23;20178;-93
2022/03/05 15:08:54;;;;;;;11.73;8.37;;;14.40;79.70;;;;;;6106643;23;20163;-94
2022/03/05 15:11:44;;;;;;;12.13;8.03;;;14.40;83.80;;;;;;6109975;23;20166;-94
2022/03/05 15:17:18;;;;;;;11.20;7.53;;;14.20;81.90;;;;;;6176273;22;20265;-94
2022/03/05 15:19:48;;;;;;;9.97;7.70;;;14.50;82.20;;;;;;6134042;23;20199;-94
2022/03/05 15:22:18;;;;;;;12.30;7.77;;;14.60;80.80;;;;;;6127663;23;20234;-94
2022/03/05 15:24:47;;;;;;;17.20;8.83;;;14.50;83.60;;;;;;6127735;23;20200;-94
2022/03/05 15:27:16;;;;;;;14.17;9.20;;;14.60;83.80;;;;;;6128327;23;20227;-94
2022/03/05 15:29:45;;;;;;;18.00;10.53;;;14.60;83.60;;;;;;6129129;23;20189;-95
2022/03/05 15:32:14;;;;;;;18.23;11.23;;;14.60;83.60;;;;;;6131542;23;20431;-94
2022/03/05 15:34:43;;;;;;;20.07;11.80;;;13.90;82.40;;;;;;6131893;23;20173;-94
2022/03/05 15:37:12;;;;;;;20.63;11.40;;;13.70;83.60;;;;;;6131901;23;20170;-95
2022/03/05 15:39:42;;;;;;;18.53;10.43;;;13.50;83.50;;;;;;6131952;23;20174;-94
2022/03/05 15:42:11;;;;;;;15.50;10.10;;;13.50;83.80;;;;;;6132466;23;20229;-94
2022/03/05 15:44:40;;;;;;;18.77;10.67;;;13.70;86.40;;;;;;6132516;23;20166;-94
2022/03/05 15:47:09;;;;;;;20.07;12.47;;;13.60;87.40;;;;;;6130409;23;20176;-95
2022/03/05 15:49:40;;;;;;;22.67;12.77;;;13.80;90.50;;;;;;6128684;23;20186;-95
2022/03/05 15:52:09;;;;;;;21.53;12.50;;;13.70;90.60;;;;;;6130265;23;20173;-95
2022/03/05 15:54:38;;;;;;;17.13;11.63;;;13.50;90.60;;;;;;6129814;23;20177;-93
2022/03/05 15:57:08;;;;;;;20.10;12.97;;;13.50;91.10;;;;;;6154418;23;20426;-95
2022/03/05 15:59:37;;;;;;;21.97;11.97;;;13.60;91.60;;;;;;6130204;23;20162;-94
2022/03/05 16:02:07;;;;;;;19.57;12.10;;;13.50;91.60;;;;;;6130207;23;20205;-94
2022/03/05 16:04:36;;;;;;;20.73;12.27;;;13.50;91.50;;;;;;6129118;23;20157;-94
2022/03/05 16:07:05;;;;;;;21.23;12.60;;;13.40;91.20;;;;;;6129849;23;20165;-95
2022/03/05 16:09:34;;;;;;;21.17;12.60;;;13.10;91.40;;;;;;6129124;23;20199;-93
2022/03/05 16:12:04;;;;;;;21.13;12.97;;;13.00;91.30;;;;;;6127823;23;20177;-94
2022/03/05 16:14:34;;;;;;;24.93;13.30;;;12.80;91.80;;;;;;6126922;23;20181;-95
2022/03/05 16:17:02;;;;;;;21.00;12.87;;;12.60;92.20;;;;;;6128801;23;20254;-94
2022/03/05 16:19:32;;;;;;;23.50;13.27;;;12.50;92.70;;;;;;6128787;23;20180;-94
2022/03/05 16:22:00;;;;;;;26.23;13.93;;;12.40;92.00;;;;;;6130832;23;20239;-94
2022/03/05 16:24:29;;;;;;;24.13;14.17;;;12.20;93.30;;;;;;6129572;23;20197;-94
2022/03/05 16:26:58;;;;;;;23.57;13.57;;;12.10;93.60;;;;;;6130102;23;20170;-95
2022/03/05 16:29:27;;;;;;;21.70;12.80;;;12.20;93.50;;;;;;6129065;23;20208;-95
2022/03/05 16:31:57;;;;;;;21.43;13.20;;;12.10;93.10;;;;;;6130495;23;20237;-94
2022/03/05 16:34:28;;;;;;;21.57;13.07;;;12.10;93.00;;;;;;6129047;23;20256;-95
2022/03/05 16:36:57;;;;;;;21.83;12.37;;;11.90;92.70;;;;;;6129828;23;20169;-94
2022/03/05 16:39:25;;;;;;;20.70;11.80;;;11.70;93.10;;;;;;6129114;23;20192;-96
2022/03/05 16:41:54;;;;;;;21.60;11.27;;;11.40;92.70;;;;;;6129622;23;20201;-93
2022/03/05 16:44:23;;;;;;;18.20;11.70;;;11.20;92.50;;;;;;6129002;23;20165;-94
2022/03/05 16:46:52;;;;;;;21.03;11.13;;;11.00;92.40;;;;;;6125867;23;20241;-95
2022/03/05 16:49:23;;;;;;;19.77;11.37;;;10.80;92.20;;;;;;6129332;23;20173;-94
2022/03/05 16:51:53;;;;;;;16.23;10.30;;;10.60;92.00;;;;;;6129319;23;20190;-94
2022/03/05 16:54:22;;;;;;;20.43;11.30;;;10.40;92.90;;;;;;6128671;23;20368;-94
2022/03/05 16:56:51;;;;;;;19.97;11.80;;;10.30;93.30;;;;;;6129583;23;20178;-94
2022/03/05 16:59:20;;;;;;;20.40;12.03;;;10.20;93.60;;;;;;6130223;23;20180;-93
2022/03/05 17:01:49;;;;;;;21.37;12.50;;;10.10;94.20;;;;;;6129320;23;20237;-93
2022/03/05 17:04:20;;;;;;;23.73;13.43;;;9.90;94.20;;;;;;6131397;23;20169;-94
2022/03/05 17:06:51;;;;;;;24.83;14.13;;;9.80;94.50;;;;;;6130971;23;20644;-93
2022/03/05 17:09:20;;;;;;;24.17;14.03;;;9.70;95.50;;;;;;6130760;23;20166;-93
2022/03/05 17:11:55;;;;;;;28.33;15.60;;;9.40;96.20;;;;;;6131252;23;20189;-95
2022/03/05 17:14:24;;;;;;;30.17;16.00;;;9.30;97.50;;;;;;6141470;23;20165;-92
2022/03/05 17:16:53;;;;;;;32.53;17.20;;;9.20;98.20;;;;;;6144249;23;20253;-93
2022/03/05 17:19:22;;;;;;;31.43;17.63;;;9.10;98.80;;;;;;6146007;23;20176;-93
2022/03/05 17:21:52;;;;;;;31.87;17.53;;;9.00;99.90;;;;;;6146797;23;20625;-93
2022/03/05 17:24:21;;;;;;;34.17;17.47;;;8.80;99.90;;;;;;6147796;23;20188;-95
2022/03/05 17:26:49;;;;;;;36.43;18.37;;;8.70;99.90;;;;;;6146357;23;20170;-92
2022/03/05 17:29:18;;;;;;;39.17;18.33;;;8.60;99.90;;;;;;6144989;23;20177;-94
2022/03/05 17:31:47;;;;;;;35.40;18.20;;;8.50;99.90;;;;;;6163919;23;20185;-95
2022/03/05 17:34:16;;;;;;;38.07;18.83;;;8.30;99.90;;;;;;6140645;23;20621;-92
2022/03/05 17:36:45;;;;;;;39.60;18.60;;;8.20;99.90;;;;;;6138144;23;20179;-93
2022/03/05 17:39:15;;;;;;;32.97;17.57;;;8.10;99.90;;;;;;6139827;23;20169;-94
2022/03/05 17:41:49;;;;;;;34.17;17.53;;;8.00;99.90;;;;;;6138796;23;20165;-92
2022/03/05 17:44:18;;;;;;;39.03;17.70;;;7.90;99.90;;;;;;6139736;23;20237;-94
2022/03/05 17:46:47;;;;;;;40.87;18.60;;;7.80;99.90;;;;;;6139417;23;20223;-94
2022/03/05 17:49:16;;;;;;;36.97;18.50;;;7.70;99.90;;;;;;6139662;23;20170;-93
2022/03/05 17:51:49;;;;;;;40.17;18.80;;;7.60;99.90;;;;;;6139440;23;20194;-94
2022/03/05 17:54:19;;;;;;;33.77;17.77;;;7.50;99.90;;;;;;6139159;23;20169;-94
2022/03/05 17:56:48;;;;;;;37.23;18.20;;;7.40;99.90;;;;;;6138131;23;20177;-93
2022/03/05 17:59:17;;;;;;;41.90;19.40;;;7.30;99.90;;;;;;6134976;23;20176;-93
2022/03/05 18:01:48;;;;;;;41.57;19.63;;;7.20;99.90;;;;;;6133897;23;20170;-94
2022/03/05 18:04:19;;;;;;;41.03;19.53;;;7.10;99.90;;;;;;6137893;23;20165;-93
2022/03/05 18:06:49;;;;;;;37.10;19.43;;;7.00;99.90;;;;;;6138328;23;20181;-93
2022/03/05 18:09:19;;;;;;;39.73;19.50;;;6.90;99.90;;;;;;6138589;23;20405;-93
2022/03/05 18:11:48;;;;;;;41.77;20.97;;;6.80;99.90;;;;;;6136308;23;20182;-93
2022/03/05 18:14:17;;;;;;;44.67;21.13;;;6.70;99.90;;;;;;6138797;23;20256;-92
2022/03/05 18:16:46;;;;;;;50.60;22.27;;;6.60;99.90;;;;;;6138702;23;20292;-93
2022/03/05 18:19:14;;;;;;;43.70;22.60;;;6.50;99.90;;;;;;6139380;23;20178;-93
2022/03/05 18:21:49;;;;;;;46.83;22.00;;;6.40;99.90;;;;;;6138906;23;20165;-93
2022/03/05 18:24:19;;;;;;;56.90;24.27;;;6.40;99.90;;;;;;6138489;23;20200;-93
2022/03/05 18:26:48;;;;;;;51.57;23.03;;;6.30;99.90;;;;;;6161327;23;20170;-92
2022/03/05 18:29:17;;;;;;;54.63;25.57;;;6.20;99.90;;;;;;6136451;23;20169;-93
2022/03/05 18:31:45;;;;;;;54.77;25.30;;;6.10;99.90;;;;;;6137059;23;20262;-93
2022/03/05 18:34:14;;;;;;;53.57;25.17;;;6.00;99.90;;;;;;6138898;23;20189;-94
2022/03/05 18:36:43;;;;;;;53.00;26.10;;;5.90;99.90;;;;;;6138319;23;20274;-94
2022/03/05 18:39:12;;;;;;;58.03;26.13;;;5.90;99.90;;;;;;6139507;23;20275;-94
2022/03/05 18:41:42;;;;;;;55.80;25.70;;;5.80;99.90;;;;;;6137730;23;20228;-94
2022/03/05 18:44:11;;;;;;;55.93;25.23;;;5.70;99.90;;;;;;6138363;23;20616;-92
2022/03/05 18:46:41;;;;;;;57.37;26.50;;;5.60;99.90;;;;;;6138508;23;20629;-94
2022/03/05 18:49:09;;;;;;;57.20;26.60;;;5.50;99.90;;;;;;6138378;23;20696;-92
2022/03/05 18:51:38;;;;;;;55.07;25.67;;;5.40;99.90;;;;;;6137746;23;20215;-94
2022/03/05 18:54:08;;;;;;;60.13;26.77;;;5.40;99.90;;;;;;6164343;23;20166;-93
2022/03/05 18:56:37;;;;;;;64.93;28.00;;;5.30;99.90;;;;;;6137246;23;20225;-93
2022/03/05 18:59:08;;;;;;;58.90;26.97;;;5.30;99.90;;;;;;6138335;23;20174;-93
2022/03/05 19:01:39;;;;;;;57.87;25.83;;;5.20;99.90;;;;;;6163262;23;20226;-93
2022/03/05 19:04:08;;;;;;;62.37;27.00;;;5.10;99.90;;;;;;6138231;23;20204;-93
2022/03/05 19:06:37;;;;;;;64.77;27.53;;;5.10;99.90;;;;;;6267496;22;20169;-93
2022/03/05 19:09:07;;;;;;;61.33;26.63;;;5.10;99.90;;;;;;6137803;23;20173;-94
2022/03/05 19:11:38;;;;;;;64.90;27.87;;;5.00;99.90;;;;;;6136852;23;20185;-94
2022/03/05 19:14:08;;;;;;;66.27;28.03;;;4.90;99.90;;;;;;6138826;23;20185;-94
2022/03/05 19:16:37;;;;;;;62.37;28.17;;;4.90;99.90;;;;;;6136939;23;20197;-95
2022/03/05 19:19:07;;;;;;;59.70;27.03;;;4.80;99.90;;;;;;6137334;23;20295;-92
2022/03/05 19:21:36;;;;;;;64.17;27.23;;;4.70;99.90;;;;;;6135482;23;20201;-94
2022/03/05 19:24:05;;;;;;;64.70;28.20;;;4.60;99.90;;;;;;6136992;23;20170;-93
2022/03/05 19:26:35;;;;;;;68.30;27.87;;;4.50;99.90;;;;;;6137060;23;20193;-93
2022/03/05 19:29:04;;;;;;;63.20;27.40;;;4.40;99.90;;;;;;6136619;23;20201;-92
2022/03/05 19:31:34;;;;;;;63.27;27.40;;;4.40;99.90;;;;;;6137411;23;20186;-94
2022/03/05 19:34:03;;;;;;;64.40;26.63;;;4.30;99.90;;;;;;6137952;23;20170;-92
2022/03/05 19:36:32;;;;;;;62.63;27.33;;;4.20;99.90;;;;;;6135933;23;20175;-95
2022/03/05 19:39:00;;;;;;;69.40;28.90;;;4.20;99.90;;;;;;6137725;23;20200;-93
2022/03/05 19:41:29;;;;;;;71.80;30.13;;;4.10;99.90;;;;;;6135890;23;20260;-92
2022/03/05 19:43:58;;;;;;;68.67;28.60;;;4.00;99.90;;;;;;6136728;23;20193;-92
2022/03/05 19:46:27;;;;;;;71.77;29.10;;;3.90;99.90;;;;;;6135132;23;20197;-93
2022/03/05 19:48:57;;;;;;;70.23;29.63;;;3.90;99.90;;;;;;6135964;23;20169;-91
2022/03/05 19:51:26;;;;;;;66.97;28.03;;;3.80;99.90;;;;;;6134784;23;20184;-92
2022/03/05 19:53:55;;;;;;;66.83;28.10;;;3.80;99.90;;;;;;6134758;23;20180;-93
2022/03/05 19:56:24;;;;;;;64.27;28.63;;;3.70;99.90;;;;;;6133328;23;20459;-94
2022/03/05 19:58:53;;;;;;;70.63;29.07;;;3.70;99.90;;;;;;6132716;23;20173;-93
2022/03/05 20:01:22;;;;;;;70.23;27.70;;;3.60;99.90;;;;;;6131076;23;20170;-93
2022/03/05 20:03:50;;;;;;;72.90;27.87;;;3.50;99.90;;;;;;6126441;23;20177;-93
2022/03/05 20:06:20;;;;;;;66.30;28.63;;;3.50;99.90;;;;;;6127265;23;20173;-94
2022/03/05 20:08:49;;;;;;;69.00;27.87;;;3.40;99.90;;;;;;6126802;23;20165;-92
2022/03/05 20:11:18;;;;;;;64.53;28.67;;;3.40;99.90;;;;;;6126638;23;20204;-92
2022/03/05 20:13:47;;;;;;;66.00;28.33;;;3.30;99.90;;;;;;6125982;23;20272;-91
2022/03/05 20:16:16;;;;;;;73.93;29.10;;;3.20;99.90;;;;;;6121088;23;20202;-92
2022/03/05 20:18:45;;;;;;;72.77;29.50;;;3.20;99.90;;;;;;6121658;23;20243;-93
2022/03/05 20:21:13;;;;;;;66.77;27.90;;;3.20;99.90;;;;;;6120777;23;20712;-94
2022/03/05 20:23:44;;;;;;;69.20;27.67;;;3.10;99.90;;;;;;6120302;23;20263;-92
2022/03/05 20:26:13;;;;;;;71.50;29.80;;;3.00;99.90;;;;;;6121345;23;20564;-92
2022/03/05 20:28:42;;;;;;;67.07;28.77;;;3.00;99.90;;;;;;6119959;23;20617;-93
2022/03/05 20:31:10;;;;;;;76.10;30.57;;;2.90;99.90;;;;;;6121310;23;20202;-94
2022/03/05 20:33:40;;;;;;;73.60;30.83;;;2.90;99.90;;;;;;6119200;23;20196;-93
2022/03/05 20:36:09;;;;;;;66.50;29.47;;;2.80;99.90;;;;;;6121365;23;20200;-93
2022/03/05 20:38:38;;;;;;;76.77;30.90;;;2.80;99.90;;;;;;6119696;23;20606;-93
2022/03/05 20:41:09;;;;;;;79.77;30.53;;;2.70;99.90;;;;;;6120397;23;20170;-92
2022/03/05 20:43:38;;;;;;;72.67;28.63;;;2.70;99.90;;;;;;6120599;23;20181;-93
2022/03/05 20:46:06;;;;;;;70.00;29.93;;;2.60;99.90;;;;;;6121345;23;20182;-92
2022/03/05 20:48:35;;;;;;;77.27;31.43;;;2.60;99.90;;;;;;6120996;23;20174;-93
2022/03/05 20:51:04;;;;;;;84.87;34.20;;;2.50;99.90;;;;;;6120262;23;20180;-92
2022/03/05 20:53:33;;;;;;;89.00;34.50;;;2.40;99.90;;;;;;6119428;23;20276;-91
2022/03/05 20:56:01;;;;;;;86.93;35.50;;;2.40;99.90;;;;;;6120249;23;20166;-92
2022/03/05 20:58:31;;;;;;;89.53;34.90;;;2.30;99.90;;;;;;6119440;23;20190;-94
2022/03/05 21:01:00;;;;;;;93.17;36.83;;;2.30;99.90;;;;;;6120808;23;20184;-92
2022/03/05 21:03:29;;;;;;;92.73;35.87;;;2.20;99.90;;;;;;6124002;23;20190;-92
2022/03/05 21:05:58;;;;;;;83.63;34.23;;;2.20;99.90;;;;;;6125959;23;20178;-93
2022/03/05 21:08:27;;;;;;;87.77;34.73;;;2.20;99.90;;;;;;6122483;23;20578;-94
2022/03/05 21:10:57;;;;;;;91.03;36.07;;;2.10;99.90;;;;;;6120772;23;20200;-91
2022/03/05 21:13:26;;;;;;;89.13;34.47;;;2.10;99.90;;;;;;6121217;23;20432;-92
2022/03/05 21:15:56;;;;;;;88.93;34.67;;;2.10;99.90;;;;;;6122571;23;20609;-91
2022/03/05 21:18:25;;;;;;;81.73;33.87;;;2.00;99.90;;;;;;6121513;23;20224;-92
2022/03/05 21:20:54;;;;;;;87.33;33.00;;;2.00;99.90;;;;;;6122574;23;20708;-93
2022/03/05 21:23:23;;;;;;;82.33;34.63;;;1.90;99.90;;;;;;6119418;23;20166;-91
2022/03/05 21:25:52;;;;;;;87.87;34.43;;;1.80;99.90;;;;;;6120774;23;20517;-93
2022/03/05 21:28:20;;;;;;;87.63;34.37;;;1.80;99.90;;;;;;6119756;23;20170;-91
2022/03/05 21:30:49;;;;;;;92.37;33.37;;;1.80;99.90;;;;;;6120235;23;20174;-93
2022/03/05 21:33:20;;;;;;;91.53;35.93;;;1.80;99.90;;;;;;6119328;23;20190;-93
2022/03/05 21:35:49;;;;;;;87.60;33.17;;;1.80;99.90;;;;;;6119315;23;20167;-93
2022/03/05 21:38:18;;;;;;;89.03;34.50;;;1.70;99.90;;;;;;6118956;23;20205;-93
2022/03/05 21:40:48;;;;;;;83.80;33.10;;;1.70;99.90;;;;;;6117897;23;20202;-93
2022/03/05 21:43:18;;;;;;;84.17;32.40;;;1.70;99.90;;;;;;6118120;23;20202;-94
2022/03/05 21:45:47;;;;;;;87.00;32.83;;;1.70;99.90;;;;;;6123680;23;20171;-91
2022/03/05 21:48:16;;;;;;;80.93;31.57;;;1.60;99.90;;;;;;6126641;23;20182;-91
2022/03/05 21:50:46;;;;;;;81.80;31.07;;;1.60;99.90;;;;;;6126513;23;20184;-92
2022/03/05 21:53:15;;;;;;;86.27;32.03;;;1.60;99.90;;;;;;6121989;23;20201;-92
2022/03/05 21:55:44;;;;;;;87.53;33.10;;;1.60;99.90;;;;;;6121554;23;20171;-93
2022/03/05 21:58:13;;;;;;;84.07;32.57;;;1.60;99.90;;;;;;6123045;23;20181;-93
2022/03/05 22:00:41;;;;;;;83.53;31.20;;;1.60;99.90;;;;;;6119476;23;20166;-91
2022/03/05 22:03:11;;;;;;;83.73;33.10;;;1.60;99.90;;;;;;6122522;23;20212;-92
2022/03/05 22:05:40;;;;;;;88.30;32.77;;;1.60;99.90;;;;;;6119030;23;20170;-93
2022/03/05 22:08:10;;;;;;;92.20;33.37;;;1.60;99.90;;;;;;6120044;23;20197;-93
2022/03/05 22:10:39;;;;;;;87.10;32.03;;;1.50;99.90;;;;;;6120278;23;20250;-93
2022/03/05 22:13:08;;;;;;;91.00;30.90;;;1.50;99.90;;;;;;6120810;23;20198;-91
2022/03/05 22:15:36;;;;;;;84.63;32.37;;;1.50;99.90;;;;;;6121239;23;20202;-93
2022/03/05 22:18:05;;;;;;;81.90;31.57;;;1.50;99.90;;;;;;6122750;23;20166;-93
2022/03/05 22:20:34;;;;;;;86.63;30.90;;;1.50;99.90;;;;;;6121800;23;20170;-92
2022/03/05 22:23:03;;;;;;;83.40;31.57;;;1.50;99.90;;;;;;6122724;23;20253;-93
2022/03/05 22:25:33;;;;;;;87.57;31.60;;;1.40;99.90;;;;;;6122328;23;20180;-93